Cmt Otter — WDI8641 — position and weather

sailwx.info

Track history (hours):
 
Tides and Currents Weather Stations Pressure Air Temp Water Temp Dewpoint Dewpoint Depression Visibility Wind Speed Wind Dir Waves Ship Positions

Cmt Otter

Owner: Coeymans Marine Towing, Coeymans, NY. More information available from US FCC via Universal Licensing System and Coast Guard Vessel Documentation Center.

Last reported at 2018-May-21 00:25 UTC. Time now 2018-May-21 01:04 UTC.
Position N 40°44' W 073°57'.

Length 20 m; draft 3 m.

Type: Towing. MMSI: 367740640.

Date/timePositionNaut miles runAvg speedWind from/ knotsBaromVisibWave heightAir tempDewpointWater temp
2018-May-21 00:25N 40°44' W 073°57'2 3.7
2018-May-21 00:00N 40°43' W 073°58'2 3.7
2018-May-20 23:30N 40°42' W 074°00'2 4.2
2018-May-20 23:00N 40°40' W 074°02'1 1.3
2018-May-20 22:30N 40°40' W 074°01'1 1.7
2018-May-20 22:01N 40°40' W 074°02'1 2.6
2018-May-20 21:30N 40°41' W 074°02'3 6.7
2018-May-20 21:00N 40°44' W 074°01'3 5.8
2018-May-20 20:30N 40°47' W 073°60'  
2018-May-18 12:37N 40°47' W 073°60'1 3.7
2018-May-18 12:20N 40°46' W 074°00'1 3.1
2018-May-18 12:00N 40°45' W 074°01'1 2.7
2018-May-18 11:30N 40°44' W 074°01'2 3.1
2018-May-18 11:00N 40°43' W 074°02'2 3.3
2018-May-18 10:30N 40°41' W 074°02'1 2.6
2018-May-18 10:00N 40°40' W 074°03'0 0.0
2018-May-18 09:31N 40°40' W 074°03'0 0.1
2018-May-18 09:00N 40°40' W 074°03'0 0.0
2018-May-18 08:30N 40°40' W 074°03'0 0.0
2018-May-18 08:00N 40°40' W 074°03'0 0.0
2018-May-18 07:31N 40°40' W 074°03'0 0.0
2018-May-18 07:01N 40°40' W 074°03'1 1.2
2018-May-18 06:30N 40°40' W 074°03'3 5.6
2018-May-18 06:00N 40°42' W 073°60'3 2.1
2018-May-18 04:30N 40°44' W 073°57'1 1.6
2018-May-18 04:00N 40°44' W 073°58'3 6.1
2018-May-18 03:31N 40°42' W 074°00'2 4.6
2018-May-18 03:01N 40°40' W 074°02'1 1.7
2018-May-18 02:30N 40°40' W 074°01'0 0.0
2018-May-18 02:00N 40°40' W 074°01'0 0.0
2018-May-18 01:31N 40°40' W 074°01'0 0.0
2018-May-18 01:01N 40°40' W 074°01'1 2.2
2018-May-18 00:31N 40°40' W 074°02'1 1.6
2018-May-18 00:01N 40°40' W 074°03'2 4.8
2018-May-17 23:31N 40°41' W 074°00'2 3.3
2018-May-17 23:01N 40°43' W 073°59'2 3.8
2018-May-17 22:25N 40°44' W 073°57'0 0.2
2018-May-17 21:11N 40°44' W 073°57'0 0.3
2018-May-17 20:44N 40°44' W 073°57'1 1.9
2018-May-17 20:25N 40°44' W 073°58'1 3.5
2018-May-17 20:01N 40°43' W 073°58'1 2.2
2018-May-17 19:29N 40°42' W 073°60'2 3.5
2018-May-17 19:00N 40°41' W 074°01'1 2.6
2018-May-17 18:30N 40°40' W 074°00'1 1.8
2018-May-17 18:00N 40°40' W 074°01'1 1.3
2018-May-17 17:31N 40°40' W 074°01'0 0.1
2018-May-17 11:49N 40°40' W 074°01'0 1.5
2018-May-17 11:30N 40°40' W 074°01'2 1.1
2018-May-17 10:00N 40°40' W 074°03'0 0.3
2018-May-17 09:30N 40°40' W 074°03'3 6.3
2018-May-17 09:00N 40°42' W 074°00'3 1.8
2018-May-17 07:24N 40°44' W 073°58'1 0.3
2018-May-17 05:23N 40°44' W 073°58'1 3.7
2018-May-17 05:00N 40°43' W 073°59'2 4.4
2018-May-17 04:30N 40°41' W 074°01'1 2.7
2018-May-17 04:00N 40°40' W 074°02'1 2.3
2018-May-17 03:30N 40°40' W 074°03'0 0.1
2018-May-17 03:00N 40°40' W 074°03'2 3.2
2018-May-17 02:30N 40°39' W 074°05'1 0.4
2018-May-16 23:14N 40°39' W 074°07'1 6.3
2018-May-16 23:00N 40°39' W 074°05'2 4.8
2018-May-16 22:30N 40°40' W 074°02'1 2.5
2018-May-16 22:00N 40°40' W 074°00'0 0.3
2018-May-16 21:31N 40°40' W 074°00'2 3.4
2018-May-16 21:00N 40°40' W 074°02'1 1.7
2018-May-16 20:31N 40°40' W 074°03'0 0.1
2018-May-16 20:00N 40°40' W 074°03'0 0.1
2018-May-16 19:30N 40°40' W 074°03'0 0.0
2018-May-16 19:00N 40°40' W 074°03'1 2.7
2018-May-16 18:30N 40°41' W 074°02'4 8.0
2018-May-16 18:00N 40°44' W 073°58'1 2.1
2018-May-16 17:25N 40°44' W 073°57'0 0.0
2018-May-16 16:57N 40°44' W 073°57'1 2.4
2018-May-16 16:30N 40°44' W 073°58'2 3.5
2018-May-16 16:00N 40°42' W 073°59'3 5.1
2018-May-16 15:30N 40°40' W 074°02'1 1.4
2018-May-16 15:00N 40°40' W 074°02'1 2.4
2018-May-16 14:30N 40°40' W 074°00'0 0.2
2018-May-16 14:00N 40°40' W 074°00'2 3.1
2018-May-16 13:30N 40°40' W 074°02'1 2.7
2018-May-16 13:00N 40°39' W 074°03'7 2.7
2018-May-16 10:17N 40°35' W 073°55'1 1.0
2018-May-16 08:47N 40°34' W 073°56'4 5.9
2018-May-16 08:05N 40°34' W 074°01'2 8.0
2018-May-16 07:51N 40°36' W 074°02'3 7.7
2018-May-16 07:30N 40°38' W 074°04'3 5.9
2018-May-16 06:59N 40°39' W 074°08'1 0.8
2018-May-16 06:21N 40°38' W 074°09'0 0.0
2018-May-16 06:01N 40°38' W 074°09'0 0.0
2018-May-16 05:25N 40°38' W 074°09'0 0.0
2018-May-16 04:54N 40°38' W 074°09'0 0.0
2018-May-16 04:28N 40°38' W 074°09'0 0.0
2018-May-16 03:59N 40°38' W 074°09'2 3.5
2018-May-16 03:26N 40°39' W 074°06'2 4.4
2018-May-16 03:00N 40°40' W 074°04'3 5.4
2018-May-16 02:30N 40°42' W 074°02'3 5.2
2018-May-16 02:00N 40°43' W 073°59'2 3.9
2018-May-16 01:29N 40°44' W 073°57'0 0.0
2018-May-16 01:00N 40°44' W 073°57'1 0.8
2018-May-16 00:13N 40°44' W 073°58'2 8.5
2018-May-16 00:00N 40°43' W 073°58'4 8.4
2018-May-15 23:30N 40°40' W 074°03'3 6.4
2018-May-15 23:00N 40°39' W 074°07'2 3.0
2018-May-15 22:30N 40°38' W 074°09'0 0.1
2018-May-15 21:48N 40°38' W 074°09'0 0.1
2018-May-15 21:30N 40°38' W 074°09'2 3.3
2018-May-15 21:00N 40°39' W 074°07'3 6.1
2018-May-15 20:31N 40°40' W 074°03'3 5.9
2018-May-15 20:00N 40°42' W 074°00'3 5.3
2018-May-15 19:22N 40°44' W 073°57'0 0.1
2018-May-15 19:00N 40°44' W 073°57'0 0.0
2018-May-15 18:24N 40°44' W 073°57'0 0.2
2018-May-15 17:59N 40°44' W 073°57'1 3.0
2018-May-15 17:30N 40°43' W 073°58'2 3.2
2018-May-15 17:00N 40°42' W 073°60'3 5.1
2018-May-15 16:30N 40°40' W 074°01'1 1.2
2018-May-15 16:00N 40°40' W 074°01'0 0.0
2018-May-15 15:30N 40°40' W 074°01'3 5.3
2018-May-15 15:00N 40°40' W 074°04'4 7.5
2018-May-15 14:30N 40°38' W 074°09'1 1.1
2018-May-15 14:00N 40°39' W 074°08'3 5.3
2018-May-15 13:30N 40°39' W 074°05'2 4.6
2018-May-15 13:00N 40°41' W 074°03'2 3.5
2018-May-15 12:30N 40°42' W 074°02'2 4.0
2018-May-15 12:01N 40°44' W 074°01'2 0.1
2018-May-14 16:46N 40°46' W 074°00'1 5.0
2018-May-14 16:30N 40°45' W 074°01'2 4.6
2018-May-14 16:00N 40°42' W 074°01'3 5.8
2018-May-14 15:30N 40°40' W 074°03'1 2.5
2018-May-14 15:00N 40°40' W 074°02'1 1.8
2018-May-14 14:30N 40°40' W 074°01'1 2.7
2018-May-14 14:01N 40°41' W 074°00'0 0.8
2018-May-14 13:30N 40°42' W 074°00'1 2.8
2018-May-14 13:00N 40°41' W 074°01'2 3.0
2018-May-14 12:29N 40°40' W 074°03'2 4.1
2018-May-14 12:00N 40°40' W 074°01'0 0.0
2018-May-14 11:31N 40°40' W 074°01'0 0.0
2018-May-14 11:00N 40°40' W 074°01'0 0.0
2018-May-14 10:30N 40°40' W 074°01'0 0.0
2018-May-14 10:00N 40°40' W 074°01'0 0.0
2018-May-14 09:30N 40°40' W 074°01'0 0.0
2018-May-14 09:01N 40°40' W 074°01'0 0.0
2018-May-14 08:30N 40°40' W 074°01'0 0.0
2018-May-14 08:00N 40°40' W 074°01'0 0.0
2018-May-14 07:30N 40°40' W 074°01'0 0.0
2018-May-14 07:00N 40°40' W 074°01'0 0.0
2018-May-14 06:30N 40°40' W 074°01'0 0.0
2018-May-14 06:00N 40°40' W 074°01'0 0.0
2018-May-14 05:30N 40°40' W 074°01'0 0.0
2018-May-14 05:00N 40°40' W 074°01'0 0.0
2018-May-14 04:30N 40°40' W 074°01'0 0.0
2018-May-14 04:00N 40°40' W 074°01'0 0.0
2018-May-14 03:30N 40°40' W 074°01'0 0.0
2018-May-14 03:00N 40°40' W 074°01'0 0.0
2018-May-14 02:31N 40°40' W 074°01'0 0.0
2018-May-14 02:00N 40°40' W 074°01'0 0.0
2018-May-14 01:30N 40°40' W 074°01'0 0.0
2018-May-14 01:00N 40°40' W 074°01'0 0.0
2018-May-14 00:30N 40°40' W 074°01'0 0.0
2018-May-14 00:00N 40°40' W 074°01'0 0.0
2018-May-13 23:30N 40°40' W 074°01'0 0.0
2018-May-13 23:00N 40°40' W 074°01'1 1.5
2018-May-13 22:30N 40°41' W 074°01'2 3.4
2018-May-13 22:00N 40°42' W 073°60'2 3.4
2018-May-13 21:31N 40°43' W 073°58'1 2.9
2018-May-13 21:00N 40°44' W 073°57'1 2.1
2018-May-13 20:30N 40°44' W 073°58'4 7.9
2018-May-13 20:00N 40°41' W 074°01'2 3.4
2018-May-13 19:31N 40°40' W 074°03'2 4.1
2018-May-13 19:00N 40°42' W 074°02'  
2018-May-11 01:50N 40°47' W 073°60'2 4.3
2018-May-11 01:25N 40°46' W 074°01'2 4.4
2018-May-11 01:00N 40°44' W 074°01'  
Track history (hours):
 
Tides and Currents Weather Stations Pressure Air Temp Water Temp Dewpoint Dewpoint Depression Visibility Wind Speed Wind Dir Waves Ship Positions

Cmt Otter

Owner: Coeymans Marine Towing, Coeymans, NY. More information available from US FCC via Universal Licensing System and Coast Guard Vessel Documentation Center.

Last reported at 2018-May-21 00:25 UTC. Time now 2018-May-21 01:04 UTC.
Position N 40°44' W 073°57'.

Length 20 m; draft 3 m.

Type: Towing. MMSI: 367740640.

Date/timePositionNaut miles runAvg speedWind from/ knotsBaromVisibWave heightAir tempDewpointWater temp
2018-May-21 00:25N 40°44' W 073°57'2 3.7
2018-May-21 00:00N 40°43' W 073°58'2 3.7
2018-May-20 23:30N 40°42' W 074°00'2 4.2
2018-May-20 23:00N 40°40' W 074°02'1 1.3
2018-May-20 22:30N 40°40' W 074°01'1 1.7
2018-May-20 22:01N 40°40' W 074°02'1 2.6
2018-May-20 21:30N 40°41' W 074°02'3 6.7
2018-May-20 21:00N 40°44' W 074°01'3 5.8
2018-May-20 20:30N 40°47' W 073°60'  
2018-May-18 12:37N 40°47' W 073°60'1 3.7
2018-May-18 12:20N 40°46' W 074°00'1 3.1
2018-May-18 12:00N 40°45' W 074°01'1 2.7
2018-May-18 11:30N 40°44' W 074°01'2 3.1
2018-May-18 11:00N 40°43' W 074°02'2 3.3
2018-May-18 10:30N 40°41' W 074°02'1 2.6
2018-May-18 10:00N 40°40' W 074°03'0 0.0
2018-May-18 09:31N 40°40' W 074°03'0 0.1
2018-May-18 09:00N 40°40' W 074°03'0 0.0
2018-May-18 08:30N 40°40' W 074°03'0 0.0
2018-May-18 08:00N 40°40' W 074°03'0 0.0
2018-May-18 07:31N 40°40' W 074°03'0 0.0
2018-May-18 07:01N 40°40' W 074°03'1 1.2
2018-May-18 06:30N 40°40' W 074°03'3 5.6
2018-May-18 06:00N 40°42' W 073°60'3 2.1
2018-May-18 04:30N 40°44' W 073°57'1 1.6
2018-May-18 04:00N 40°44' W 073°58'3 6.1
2018-May-18 03:31N 40°42' W 074°00'2 4.6
2018-May-18 03:01N 40°40' W 074°02'1 1.7
2018-May-18 02:30N 40°40' W 074°01'0 0.0
2018-May-18 02:00N 40°40' W 074°01'0 0.0
2018-May-18 01:31N 40°40' W 074°01'0 0.0
2018-May-18 01:01N 40°40' W 074°01'1 2.2
2018-May-18 00:31N 40°40' W 074°02'1 1.6
2018-May-18 00:01N 40°40' W 074°03'2 4.8
2018-May-17 23:31N 40°41' W 074°00'2 3.3
2018-May-17 23:01N 40°43' W 073°59'2 3.8
2018-May-17 22:25N 40°44' W 073°57'0 0.2
2018-May-17 21:11N 40°44' W 073°57'0 0.3
2018-May-17 20:44N 40°44' W 073°57'1 1.9
2018-May-17 20:25N 40°44' W 073°58'1 3.5
2018-May-17 20:01N 40°43' W 073°58'1 2.2
2018-May-17 19:29N 40°42' W 073°60'2 3.5
2018-May-17 19:00N 40°41' W 074°01'1 2.6
2018-May-17 18:30N 40°40' W 074°00'1 1.8
2018-May-17 18:00N 40°40' W 074°01'1 1.3
2018-May-17 17:31N 40°40' W 074°01'0 0.1
2018-May-17 11:49N 40°40' W 074°01'0 1.5
2018-May-17 11:30N 40°40' W 074°01'2 1.1
2018-May-17 10:00N 40°40' W 074°03'0 0.3
2018-May-17 09:30N 40°40' W 074°03'3 6.3
2018-May-17 09:00N 40°42' W 074°00'3 1.8
2018-May-17 07:24N 40°44' W 073°58'1 0.3
2018-May-17 05:23N 40°44' W 073°58'1 3.7
2018-May-17 05:00N 40°43' W 073°59'2 4.4
2018-May-17 04:30N 40°41' W 074°01'1 2.7
2018-May-17 04:00N 40°40' W 074°02'1 2.3
2018-May-17 03:30N 40°40' W 074°03'0 0.1
2018-May-17 03:00N 40°40' W 074°03'2 3.2
2018-May-17 02:30N 40°39' W 074°05'1 0.4
2018-May-16 23:14N 40°39' W 074°07'1 6.3
2018-May-16 23:00N 40°39' W 074°05'2 4.8
2018-May-16 22:30N 40°40' W 074°02'1 2.5
2018-May-16 22:00N 40°40' W 074°00'0 0.3
2018-May-16 21:31N 40°40' W 074°00'2 3.4
2018-May-16 21:00N 40°40' W 074°02'1 1.7
2018-May-16 20:31N 40°40' W 074°03'0 0.1
2018-May-16 20:00N 40°40' W 074°03'0 0.1
2018-May-16 19:30N 40°40' W 074°03'0 0.0
2018-May-16 19:00N 40°40' W 074°03'1 2.7
2018-May-16 18:30N 40°41' W 074°02'4 8.0
2018-May-16 18:00N 40°44' W 073°58'1 2.1
2018-May-16 17:25N 40°44' W 073°57'0 0.0
2018-May-16 16:57N 40°44' W 073°57'1 2.4
2018-May-16 16:30N 40°44' W 073°58'2 3.5
2018-May-16 16:00N 40°42' W 073°59'3 5.1
2018-May-16 15:30N 40°40' W 074°02'1 1.4
2018-May-16 15:00N 40°40' W 074°02'1 2.4
2018-May-16 14:30N 40°40' W 074°00'0 0.2
2018-May-16 14:00N 40°40' W 074°00'2 3.1
2018-May-16 13:30N 40°40' W 074°02'1 2.7
2018-May-16 13:00N 40°39' W 074°03'7 2.7
2018-May-16 10:17N 40°35' W 073°55'1 1.0
2018-May-16 08:47N 40°34' W 073°56'4 5.9
2018-May-16 08:05N 40°34' W 074°01'2 8.0
2018-May-16 07:51N 40°36' W 074°02'3 7.7
2018-May-16 07:30N 40°38' W 074°04'3 5.9
2018-May-16 06:59N 40°39' W 074°08'1 0.8
2018-May-16 06:21N 40°38' W 074°09'0 0.0
2018-May-16 06:01N 40°38' W 074°09'0 0.0
2018-May-16 05:25N 40°38' W 074°09'0 0.0
2018-May-16 04:54N 40°38' W 074°09'0 0.0
2018-May-16 04:28N 40°38' W 074°09'0 0.0
2018-May-16 03:59N 40°38' W 074°09'2 3.5
2018-May-16 03:26N 40°39' W 074°06'2 4.4
2018-May-16 03:00N 40°40' W 074°04'3 5.4
2018-May-16 02:30N 40°42' W 074°02'3 5.2
2018-May-16 02:00N 40°43' W 073°59'2 3.9
2018-May-16 01:29N 40°44' W 073°57'0 0.0
2018-May-16 01:00N 40°44' W 073°57'1 0.8
2018-May-16 00:13N 40°44' W 073°58'2 8.5
2018-May-16 00:00N 40°43' W 073°58'4 8.4
2018-May-15 23:30N 40°40' W 074°03'3 6.4
2018-May-15 23:00N 40°39' W 074°07'2 3.0
2018-May-15 22:30N 40°38' W 074°09'0 0.1
2018-May-15 21:48N 40°38' W 074°09'0 0.1
2018-May-15 21:30N 40°38' W 074°09'2 3.3
2018-May-15 21:00N 40°39' W 074°07'3 6.1
2018-May-15 20:31N 40°40' W 074°03'3 5.9
2018-May-15 20:00N 40°42' W 074°00'3 5.3
2018-May-15 19:22N 40°44' W 073°57'0 0.1
2018-May-15 19:00N 40°44' W 073°57'0 0.0
2018-May-15 18:24N 40°44' W 073°57'0 0.2
2018-May-15 17:59N 40°44' W 073°57'1 3.0
2018-May-15 17:30N 40°43' W 073°58'2 3.2
2018-May-15 17:00N 40°42' W 073°60'3 5.1
2018-May-15 16:30N 40°40' W 074°01'1 1.2
2018-May-15 16:00N 40°40' W 074°01'0 0.0
2018-May-15 15:30N 40°40' W 074°01'3 5.3
2018-May-15 15:00N 40°40' W 074°04'4 7.5
2018-May-15 14:30N 40°38' W 074°09'1 1.1
2018-May-15 14:00N 40°39' W 074°08'3 5.3
2018-May-15 13:30N 40°39' W 074°05'2 4.6
2018-May-15 13:00N 40°41' W 074°03'2 3.5
2018-May-15 12:30N 40°42' W 074°02'2 4.0
2018-May-15 12:01N 40°44' W 074°01'2 0.1
2018-May-14 16:46N 40°46' W 074°00'1 5.0
2018-May-14 16:30N 40°45' W 074°01'2 4.6
2018-May-14 16:00N 40°42' W 074°01'3 5.8
2018-May-14 15:30N 40°40' W 074°03'1 2.5
2018-May-14 15:00N 40°40' W 074°02'1 1.8
2018-May-14 14:30N 40°40' W 074°01'1 2.7
2018-May-14 14:01N 40°41' W 074°00'0 0.8
2018-May-14 13:30N 40°42' W 074°00'1 2.8
2018-May-14 13:00N 40°41' W 074°01'2 3.0
2018-May-14 12:29N 40°40' W 074°03'2 4.1
2018-May-14 12:00N 40°40' W 074°01'0 0.0
2018-May-14 11:31N 40°40' W 074°01'0 0.0
2018-May-14 11:00N 40°40' W 074°01'0 0.0
2018-May-14 10:30N 40°40' W 074°01'0 0.0
2018-May-14 10:00N 40°40' W 074°01'0 0.0
2018-May-14 09:30N 40°40' W 074°01'0 0.0
2018-May-14 09:01N 40°40' W 074°01'0 0.0
2018-May-14 08:30N 40°40' W 074°01'0 0.0
2018-May-14 08:00N 40°40' W 074°01'0 0.0
2018-May-14 07:30N 40°40' W 074°01'0 0.0
2018-May-14 07:00N 40°40' W 074°01'0 0.0
2018-May-14 06:30N 40°40' W 074°01'0 0.0
2018-May-14 06:00N 40°40' W 074°01'0 0.0
2018-May-14 05:30N 40°40' W 074°01'0 0.0
2018-May-14 05:00N 40°40' W 074°01'0 0.0
2018-May-14 04:30N 40°40' W 074°01'0 0.0
2018-May-14 04:00N 40°40' W 074°01'0 0.0
2018-May-14 03:30N 40°40' W 074°01'0 0.0
2018-May-14 03:00N 40°40' W 074°01'0 0.0
2018-May-14 02:31N 40°40' W 074°01'0 0.0
2018-May-14 02:00N 40°40' W 074°01'0 0.0
2018-May-14 01:30N 40°40' W 074°01'0 0.0
2018-May-14 01:00N 40°40' W 074°01'0 0.0
2018-May-14 00:30N 40°40' W 074°01'0 0.0
2018-May-14 00:00N 40°40' W 074°01'0 0.0
2018-May-13 23:30N 40°40' W 074°01'0 0.0
2018-May-13 23:00N 40°40' W 074°01'1 1.5
2018-May-13 22:30N 40°41' W 074°01'2 3.4
2018-May-13 22:00N 40°42' W 073°60'2 3.4
2018-May-13 21:31N 40°43' W 073°58'1 2.9
2018-May-13 21:00N 40°44' W 073°57'1 2.1
2018-May-13 20:30N 40°44' W 073°58'4 7.9
2018-May-13 20:00N 40°41' W 074°01'2 3.4
2018-May-13 19:31N 40°40' W 074°03'2 4.1
2018-May-13 19:00N 40°42' W 074°02'  
2018-May-11 01:50N 40°47' W 073°60'2 4.3
2018-May-11 01:25N 40°46' W 074°01'2 4.4
2018-May-11 01:00N 40°44' W 074°01'  

Dump ship's entire track history